createdAt,value
2023-05-19T00:01:17.557Z,2.00
2023-05-19T00:03:21.774Z,2.35
2023-05-19T00:05:24.846Z,2.17
2023-05-19T00:07:30.942Z,2.00
2023-05-19T00:09:33.021Z,1.85
2023-05-19T00:11:38.943Z,2.00
2023-05-19T00:13:40.684Z,1.80
2023-05-19T00:15:42.556Z,2.35
2023-05-19T00:17:44.226Z,2.03
2023-05-19T00:19:45.970Z,2.03
2023-05-19T00:21:47.772Z,2.20
2023-05-19T00:23:49.436Z,1.90
2023-05-19T00:25:52.290Z,1.88
2023-05-19T00:27:54.027Z,2.13
2023-05-19T00:29:55.671Z,2.10
2023-05-19T00:31:57.419Z,2.03
2023-05-19T00:33:59.085Z,2.20
2023-05-19T00:36:04.391Z,2.08
2023-05-19T00:38:06.650Z,2.60
2023-05-19T00:40:09.708Z,1.67
2023-05-19T00:42:11.333Z,2.17
2023-05-19T00:44:12.901Z,1.98
2023-05-19T00:46:14.850Z,2.15
2023-05-19T00:48:16.784Z,1.83
2023-05-19T00:50:18.499Z,2.30
2023-05-19T00:52:20.340Z,1.88
2023-05-19T00:54:22.082Z,2.10
2023-05-19T00:56:23.957Z,1.70
2023-05-19T00:58:29.235Z,2.17
2023-05-19T01:00:31.567Z,2.25
2023-05-19T01:02:33.328Z,2.22
2023-05-19T01:04:36.556Z,2.22
2023-05-19T01:06:38.615Z,2.22
2023-05-19T01:08:40.376Z,2.00
2023-05-19T01:10:42.216Z,2.13
2023-05-19T01:12:43.774Z,2.05
2023-05-19T01:14:45.643Z,1.90
2023-05-19T01:16:51.784Z,1.90
2023-05-19T01:19:02.032Z,1.88
2023-05-19T01:21:26.615Z,1.90
2023-05-19T01:23:36.754Z,2.00
2023-05-19T01:26:03.255Z,1.88
2023-05-19T01:28:42.301Z,1.95
2023-05-19T01:30:44.545Z,1.90
2023-05-19T01:32:48.062Z,2.00
2023-05-19T01:34:51.046Z,1.90
2023-05-19T01:36:54.919Z,2.22
2023-05-19T01:38:58.354Z,2.05
2023-05-19T01:41:01.480Z,1.80
2023-05-19T01:43:03.754Z,1.92
2023-05-19T01:45:06.821Z,2.38
2023-05-19T01:47:09.704Z,2.08
2023-05-19T01:49:11.581Z,2.08
2023-05-19T01:51:13.226Z,2.22
2023-05-19T01:53:14.961Z,2.00
2023-05-19T01:55:16.600Z,2.10
2023-05-19T01:57:33.264Z,2.30
2023-05-19T01:59:57.564Z,2.05
2023-05-19T02:02:01.387Z,2.10
2023-05-19T02:04:41.681Z,1.70
2023-05-19T02:06:49.347Z,1.90
2023-05-19T02:09:14.192Z,2.45
2023-05-19T02:11:27.800Z,2.05
2023-05-19T02:13:33.881Z,2.20
2023-05-19T02:15:40.537Z,2.00
2023-05-19T02:17:47.939Z,2.20
2023-05-19T02:19:49.677Z,2.00
2023-05-19T02:21:51.842Z,2.00
2023-05-19T02:23:53.470Z,1.88
2023-05-19T02:25:55.212Z,2.08
2023-05-19T02:27:58.489Z,1.77
2023-05-19T02:30:00.203Z,2.03
2023-05-19T02:32:02.229Z,2.08
2023-05-19T02:34:03.846Z,1.83
2023-05-19T02:36:05.949Z,2.33
2023-05-19T02:38:07.837Z,1.77
2023-05-19T02:40:09.673Z,1.60
2023-05-19T02:42:12.359Z,2.15
2023-05-19T02:44:14.294Z,1.90
2023-05-19T02:46:15.906Z,2.10
2023-05-19T02:48:17.621Z,2.58
2023-05-19T02:50:19.319Z,1.80
2023-05-19T02:52:20.994Z,2.28
2023-05-19T02:54:22.649Z,1.77
2023-05-19T02:56:24.379Z,1.95
2023-05-19T02:58:25.997Z,1.90
2023-05-19T03:00:27.694Z,2.13
2023-05-19T03:02:29.648Z,2.22
2023-05-19T03:04:31.470Z,2.30
2023-05-19T03:06:33.086Z,1.83
2023-05-19T03:08:35.973Z,2.10
2023-05-19T03:10:37.718Z,1.90
2023-05-19T03:12:39.364Z,1.70
2023-05-19T03:14:41.149Z,1.60
2023-05-19T03:16:42.920Z,1.88
2023-05-19T03:18:44.671Z,2.00
2023-05-19T03:20:46.392Z,2.13
2023-05-19T03:22:48.054Z,1.90
2023-05-19T03:24:51.095Z,2.05
2023-05-19T03:26:52.879Z,1.80
2023-05-19T03:28:54.579Z,1.85
2023-05-19T03:30:56.223Z,2.28
2023-05-19T03:32:57.951Z,1.98
2023-05-19T03:34:59.597Z,1.90
2023-05-19T03:37:01.204Z,2.33
2023-05-19T03:39:02.897Z,2.15
2023-05-19T03:41:04.763Z,1.88
2023-05-19T03:43:07.539Z,1.80
2023-05-19T03:45:09.495Z,1.83
2023-05-19T03:47:11.099Z,2.20
2023-05-19T03:49:13.894Z,1.92
2023-05-19T03:51:15.506Z,1.70
2023-05-19T03:53:17.233Z,1.80
2023-05-19T03:55:20.257Z,1.83
2023-05-19T03:57:22.542Z,2.17
2023-05-19T03:59:24.423Z,2.10
2023-05-19T04:01:26.025Z,2.00
2023-05-19T04:03:28.589Z,1.90
2023-05-19T04:05:30.369Z,1.90
2023-05-19T04:07:32.081Z,1.83
2023-05-19T04:09:35.542Z,2.03
2023-05-19T04:11:37.298Z,2.10
2023-05-19T04:13:39.226Z,2.22
2023-05-19T04:15:41.388Z,1.90
2023-05-19T04:17:43.258Z,2.00
2023-05-19T04:19:45.111Z,1.90
2023-05-19T04:21:46.973Z,2.00
2023-05-19T04:23:48.648Z,2.20
2023-05-19T04:25:50.329Z,2.17
2023-05-19T04:27:52.957Z,2.00
2023-05-19T04:29:56.078Z,1.90
2023-05-19T04:31:57.702Z,1.90
2023-05-19T04:34:01.693Z,1.70
2023-05-19T04:36:08.370Z,1.95
2023-05-19T04:38:10.061Z,2.20
2023-05-19T04:40:12.933Z,2.13
2023-05-19T04:42:14.684Z,2.00
2023-05-19T04:44:18.330Z,2.30
2023-05-19T04:46:24.371Z,2.38
2023-05-19T04:48:26.407Z,2.28
2023-05-19T04:50:29.691Z,2.00
2023-05-19T04:52:31.560Z,1.85
2023-05-19T04:54:34.894Z,2.08
2023-05-19T04:56:36.867Z,2.03
2023-05-19T04:58:40.585Z,2.08
2023-05-19T05:00:43.481Z,2.13
2023-05-19T05:02:45.133Z,1.80
2023-05-19T05:04:46.849Z,2.00
2023-05-19T05:06:49.016Z,2.40
2023-05-19T05:08:52.111Z,2.30
2023-05-19T05:10:54.264Z,1.75
2023-05-19T05:12:56.154Z,2.22
2023-05-19T05:14:58.122Z,2.03
2023-05-19T05:16:59.944Z,2.25
2023-05-19T05:19:02.520Z,2.30
2023-05-19T05:21:04.918Z,2.05
2023-05-19T05:23:09.392Z,2.30
2023-05-19T05:25:11.969Z,2.30
2023-05-19T05:27:14.467Z,2.10
2023-05-19T05:29:16.292Z,2.47
2023-05-19T05:31:18.007Z,2.10
2023-05-19T05:33:19.727Z,2.00
2023-05-19T05:35:23.508Z,1.80
2023-05-19T05:37:25.165Z,2.20
2023-05-19T05:39:28.011Z,1.98
2023-05-19T05:41:35.101Z,2.20
2023-05-19T05:43:37.013Z,2.28
2023-05-19T05:45:38.848Z,2.00
2023-05-19T05:47:41.524Z,2.10
2023-05-19T05:49:43.958Z,2.60
2023-05-19T05:51:54.697Z,1.95
2023-05-19T05:54:07.011Z,2.20
2023-05-19T05:56:10.060Z,2.38
2023-05-19T05:58:11.764Z,2.00
2023-05-19T06:00:16.582Z,2.35
2023-05-19T06:02:18.478Z,1.95
2023-05-19T06:04:21.338Z,2.35
2023-05-19T06:06:23.087Z,2.15
2023-05-19T06:08:24.732Z,2.30
2023-05-19T06:10:26.556Z,2.45
2023-05-19T06:12:28.175Z,2.25
2023-05-19T06:14:29.799Z,2.08
2023-05-19T06:16:31.574Z,2.22
2023-05-19T06:18:33.276Z,2.33
2023-05-19T06:20:35.214Z,2.20
2023-05-19T06:22:37.335Z,2.20
2023-05-19T06:24:39.707Z,2.28
2023-05-19T06:26:41.434Z,1.88
2023-05-19T06:28:42.994Z,2.33
2023-05-19T06:30:44.617Z,2.00
2023-05-19T06:32:46.230Z,2.00
2023-05-19T06:34:54.095Z,2.10
2023-05-19T06:36:55.745Z,2.35
2023-05-19T06:38:57.648Z,2.10
2023-05-19T06:40:59.327Z,2.20
2023-05-19T06:43:00.980Z,2.20
2023-05-19T06:45:02.707Z,2.30
2023-05-19T06:47:04.485Z,2.25
2023-05-19T06:49:06.315Z,2.47
2023-05-19T06:51:10.183Z,2.17
2023-05-19T06:53:12.079Z,2.10
2023-05-19T06:55:13.764Z,2.20
2023-05-19T06:57:15.671Z,2.20
2023-05-19T06:59:17.260Z,2.30
2023-05-19T07:01:18.979Z,2.10
2023-05-19T07:03:20.995Z,2.10
2023-05-19T07:05:22.794Z,2.30
2023-05-19T07:07:24.588Z,2.20
2023-05-19T07:09:26.220Z,1.92
2023-05-19T07:11:27.775Z,2.42
2023-05-19T07:13:29.525Z,2.00
2023-05-19T07:15:31.255Z,2.00
2023-05-19T07:17:32.894Z,2.50
2023-05-19T07:19:34.518Z,2.20
2023-05-19T07:21:36.291Z,2.17
2023-05-19T07:23:37.900Z,2.17
2023-05-19T07:25:39.665Z,2.10
2023-05-19T07:27:41.419Z,1.80
2023-05-19T07:29:43.027Z,2.25
2023-05-19T07:31:44.724Z,1.92
2023-05-19T07:33:46.405Z,1.58
2023-05-19T07:35:48.433Z,2.30
2023-05-19T07:37:51.121Z,2.03
2023-05-19T07:39:52.800Z,2.05
2023-05-19T07:41:55.708Z,2.03
2023-05-19T07:43:57.354Z,2.05
2023-05-19T07:45:59.062Z,2.17
2023-05-19T07:48:01.000Z,2.60
2023-05-19T07:50:03.233Z,1.88
2023-05-19T07:52:04.976Z,2.28
2023-05-19T07:54:08.317Z,2.08
2023-05-19T07:56:09.977Z,2.13
2023-05-19T07:58:11.571Z,2.00
2023-05-19T08:00:13.754Z,2.50
2023-05-19T08:02:15.449Z,2.40
2023-05-19T08:04:17.427Z,1.90
2023-05-19T08:06:19.258Z,2.28
2023-05-19T08:08:22.017Z,2.20
2023-05-19T08:10:23.801Z,1.85
2023-05-19T08:12:25.498Z,2.25
2023-05-19T08:14:27.451Z,2.28
2023-05-19T08:16:29.324Z,2.10
2023-05-19T08:18:31.089Z,2.38
2023-05-19T08:20:34.090Z,2.00
2023-05-19T08:22:36.631Z,1.88
2023-05-19T08:24:39.191Z,2.20
2023-05-19T08:26:40.999Z,2.25
2023-05-19T08:28:44.193Z,1.85
2023-05-19T08:30:46.251Z,2.50
2023-05-19T08:32:48.755Z,1.80
2023-05-19T08:34:50.816Z,1.90
2023-05-19T08:36:53.527Z,2.20
2023-05-19T08:38:55.090Z,2.17
2023-05-19T08:40:58.088Z,2.17
2023-05-19T08:42:59.888Z,2.30
2023-05-19T08:45:02.288Z,2.08
2023-05-19T08:47:05.478Z,2.08
2023-05-19T08:49:12.244Z,2.25
2023-05-19T08:51:28.873Z,2.05
2023-05-19T08:53:38.158Z,2.10
2023-05-19T08:55:47.133Z,2.10
2023-05-19T08:57:49.841Z,2.20
2023-05-19T08:59:52.503Z,2.10
2023-05-19T09:01:54.861Z,2.30
2023-05-19T09:03:57.418Z,1.95
2023-05-19T09:05:59.217Z,2.00
2023-05-19T09:08:03.250Z,2.50
2023-05-19T09:10:06.367Z,2.50
2023-05-19T09:12:08.060Z,1.95
2023-05-19T09:14:09.696Z,2.05
2023-05-19T09:16:11.774Z,1.98
2023-05-19T09:18:14.419Z,2.05
2023-05-19T09:20:17.100Z,2.00
2023-05-19T09:22:19.439Z,2.00
2023-05-19T09:24:25.775Z,1.92
2023-05-19T09:26:37.347Z,2.03
2023-05-19T09:28:40.197Z,2.83
2023-05-19T09:30:41.836Z,2.30
2023-05-19T09:32:44.547Z,2.08
2023-05-19T09:34:47.710Z,2.33
2023-05-19T09:36:49.718Z,2.28
2023-05-19T09:38:51.817Z,2.40
2023-05-19T09:40:57.250Z,2.03
2023-05-19T09:42:59.024Z,2.10
2023-05-19T09:45:02.162Z,2.30
2023-05-19T09:47:03.821Z,2.30
2023-05-19T09:49:09.865Z,2.15
2023-05-19T09:51:12.267Z,2.28
2023-05-19T09:53:15.098Z,2.28
2023-05-19T09:55:16.733Z,2.40
2023-05-19T09:57:18.482Z,2.47
2023-05-19T09:59:20.302Z,2.10
2023-05-19T10:01:23.129Z,2.30
2023-05-19T10:03:25.426Z,1.98
2023-05-19T10:05:27.533Z,2.30
2023-05-19T10:07:29.708Z,2.40
2023-05-19T10:09:32.004Z,2.30
2023-05-19T10:11:33.719Z,2.33
2023-05-19T10:13:38.583Z,3.03
2023-05-19T10:15:57.183Z,2.33
2023-05-19T10:18:00.885Z,2.15
2023-05-19T10:20:02.686Z,2.35
2023-05-19T10:22:04.472Z,2.17
2023-05-19T10:24:06.468Z,2.00
2023-05-19T10:26:08.447Z,2.00
2023-05-19T10:28:15.279Z,2.10
2023-05-19T10:30:29.673Z,2.10
2023-05-19T10:32:32.254Z,2.17
2023-05-19T10:34:50.145Z,2.35
2023-05-19T10:37:03.589Z,1.92
2023-05-19T10:39:08.281Z,2.03
2023-05-19T10:41:09.926Z,2.08
2023-05-19T10:43:35.814Z,2.17
2023-05-19T10:45:49.228Z,2.03
2023-05-19T10:47:51.788Z,2.10
2023-05-19T10:49:54.216Z,2.17
2023-05-19T10:51:59.180Z,2.00
2023-05-19T10:54:10.443Z,2.10
2023-05-19T10:56:34.775Z,2.03
2023-05-19T10:58:45.133Z,2.00
2023-05-19T11:00:46.790Z,2.00
2023-05-19T11:02:56.054Z,1.90
2023-05-19T11:05:08.394Z,1.90
2023-05-19T11:07:10.570Z,2.30
2023-05-19T11:09:20.882Z,2.30
2023-05-19T11:11:26.978Z,1.95
2023-05-19T11:13:28.638Z,2.22
2023-05-19T11:15:35.036Z,1.77
2023-05-19T11:17:36.879Z,1.98
2023-05-19T11:19:38.535Z,1.98
2023-05-19T11:21:52.269Z,1.90
2023-05-19T11:23:54.003Z,1.67
2023-05-19T11:25:55.931Z,2.10
2023-05-19T11:28:00.982Z,2.30
2023-05-19T11:30:14.367Z,1.98
2023-05-19T11:32:16.458Z,1.90
2023-05-19T11:34:18.459Z,2.00
2023-05-19T11:36:21.666Z,2.00
2023-05-19T11:38:23.737Z,1.90
2023-05-19T11:40:25.724Z,1.95
2023-05-19T11:42:27.362Z,2.40
2023-05-19T11:44:29.025Z,2.03
2023-05-19T11:46:32.163Z,2.00
2023-05-19T11:48:33.969Z,2.22
2023-05-19T11:50:38.277Z,2.22
2023-05-19T11:52:44.695Z,2.08
2023-05-19T11:54:48.644Z,2.70
2023-05-19T11:56:50.238Z,2.95
2023-05-19T11:58:53.325Z,2.28
2023-05-19T12:00:55.159Z,2.67
2023-05-19T12:02:57.526Z,2.63
2023-05-19T12:04:59.181Z,3.05
2023-05-19T12:07:00.824Z,2.60
2023-05-19T12:09:02.867Z,2.78
2023-05-19T12:11:04.975Z,2.70
2023-05-19T12:13:09.118Z,2.70
2023-05-19T12:15:11.601Z,2.80
2023-05-19T12:17:14.251Z,2.70
2023-05-19T12:19:15.986Z,3.42
2023-05-19T12:21:17.729Z,3.40
2023-05-19T12:23:19.739Z,2.65
2023-05-19T12:25:21.835Z,3.05
2023-05-19T12:27:26.174Z,3.10
2023-05-19T12:29:31.698Z,3.05
2023-05-19T12:31:35.156Z,3.03
2023-05-19T12:33:36.990Z,3.13
2023-05-19T12:35:38.654Z,2.65
2023-05-19T12:37:43.454Z,3.05
2023-05-19T12:39:45.449Z,3.08
2023-05-19T12:41:47.256Z,2.92
2023-05-19T12:43:49.207Z,2.60
2023-05-19T12:45:50.972Z,2.45
2023-05-19T12:47:52.857Z,2.70
2023-05-19T12:50:13.503Z,2.88
2023-05-19T12:52:15.284Z,3.10
2023-05-19T12:54:22.183Z,2.67
2023-05-19T12:56:26.931Z,2.92
2023-05-19T12:58:28.596Z,2.85
2023-05-19T13:00:32.600Z,2.80
2023-05-19T13:02:36.391Z,2.63
2023-05-19T13:04:38.208Z,2.63
2023-05-19T13:06:41.731Z,2.92
2023-05-19T13:08:43.537Z,2.72
2023-05-19T13:10:46.222Z,2.72
2023-05-19T13:12:47.802Z,3.22
2023-05-19T13:14:49.423Z,2.95
2023-05-19T13:16:51.272Z,3.25
2023-05-19T13:18:53.448Z,2.80
2023-05-19T13:20:55.286Z,3.15
2023-05-19T13:22:57.457Z,3.20
2023-05-19T13:24:59.773Z,2.85
2023-05-19T13:27:03.152Z,2.97
2023-05-19T13:29:05.518Z,2.83
2023-05-19T13:31:07.209Z,2.40
2023-05-19T13:33:08.921Z,2.70
2023-05-19T13:35:11.854Z,3.28
2023-05-19T13:37:13.723Z,2.85
2023-05-19T13:39:15.647Z,2.78
2023-05-19T13:41:18.282Z,3.20
2023-05-19T13:43:19.981Z,2.92
2023-05-19T13:45:21.584Z,2.80
2023-05-19T13:47:24.124Z,3.00
2023-05-19T13:49:25.827Z,3.38
2023-05-19T13:51:27.577Z,3.60
2023-05-19T13:53:31.106Z,3.15
2023-05-19T13:55:33.182Z,2.88
2023-05-19T13:57:35.482Z,2.92
2023-05-19T13:59:40.869Z,2.97
2023-05-19T14:01:50.973Z,3.17
2023-05-19T14:03:53.069Z,2.80
2023-05-19T14:05:54.760Z,2.67
2023-05-19T14:07:56.947Z,2.47
2023-05-19T14:09:58.585Z,2.38
2023-05-19T14:12:00.700Z,2.72
2023-05-19T14:14:05.069Z,2.30
2023-05-19T14:16:06.829Z,2.38
2023-05-19T14:18:08.506Z,2.75
2023-05-19T14:20:11.791Z,3.17
2023-05-19T14:22:13.447Z,2.83
2023-05-19T14:24:15.290Z,2.80
2023-05-19T14:26:17.064Z,3.30
2023-05-19T14:28:18.670Z,2.47
2023-05-19T14:30:20.985Z,3.00
2023-05-19T14:32:22.634Z,3.13
2023-05-19T14:34:24.324Z,2.80
2023-05-19T14:36:26.120Z,2.80
2023-05-19T14:38:29.353Z,2.60
2023-05-19T14:40:31.551Z,2.40
2023-05-19T14:42:33.555Z,2.83
2023-05-19T14:44:35.250Z,2.33
2023-05-19T14:46:36.984Z,2.92
2023-05-19T14:48:38.708Z,2.35
2023-05-19T14:50:40.391Z,2.72
2023-05-19T14:52:42.036Z,2.10
2023-05-19T14:54:43.663Z,2.75
2023-05-19T14:56:45.612Z,2.95
2023-05-19T14:58:47.310Z,2.60
2023-05-19T15:00:49.046Z,2.80
2023-05-19T15:02:50.809Z,2.72
2023-05-19T15:04:52.493Z,3.05
2023-05-19T15:07:05.817Z,2.67
2023-05-19T15:09:14.508Z,2.55
2023-05-19T15:11:16.071Z,2.83
2023-05-19T15:13:18.979Z,2.92
2023-05-19T15:15:20.784Z,3.20
2023-05-19T15:17:22.469Z,2.88
2023-05-19T15:19:24.153Z,2.92
2023-05-19T15:21:25.960Z,3.15
2023-05-19T15:23:27.647Z,2.58
2023-05-19T15:25:29.290Z,3.03
2023-05-19T15:27:30.968Z,2.70
2023-05-19T15:29:32.571Z,2.97
2023-05-19T15:31:35.759Z,2.80
2023-05-19T15:33:39.022Z,3.47
2023-05-19T15:35:40.830Z,3.15
2023-05-19T15:37:42.416Z,3.00
2023-05-19T15:39:44.058Z,2.60
2023-05-19T15:41:45.873Z,2.63
2023-05-19T15:43:47.515Z,2.78
2023-05-19T15:45:52.072Z,5.05
2023-05-19T15:47:54.293Z,4.60
2023-05-19T15:49:55.981Z,3.40
2023-05-19T15:51:57.623Z,2.90
2023-05-19T15:53:59.225Z,2.80
2023-05-19T15:56:02.152Z,3.10
2023-05-19T15:58:04.957Z,2.53
2023-05-19T16:00:07.473Z,2.42
2023-05-19T16:02:09.262Z,2.03
2023-05-19T16:04:11.103Z,2.85
2023-05-19T16:06:13.052Z,2.28
2023-05-19T16:08:14.711Z,2.40
2023-05-19T16:10:16.505Z,2.60
2023-05-19T16:12:18.200Z,2.50
2023-05-19T16:14:19.846Z,2.40
2023-05-19T16:16:21.811Z,3.05
2023-05-19T16:18:23.712Z,2.30
2023-05-19T16:20:28.004Z,2.60
2023-05-19T16:22:30.567Z,2.25
2023-05-19T16:24:32.228Z,2.45
2023-05-19T16:26:34.536Z,2.40
2023-05-19T16:28:36.220Z,2.30
2023-05-19T16:30:38.005Z,2.53
2023-05-19T16:32:39.802Z,2.55
2023-05-19T16:34:41.435Z,2.20
2023-05-19T16:36:43.168Z,2.60
2023-05-19T16:38:44.823Z,2.97
2023-05-19T16:40:46.385Z,2.85
2023-05-19T16:42:48.029Z,2.85
2023-05-19T16:44:49.724Z,2.58
2023-05-19T16:46:51.379Z,4.20
2023-05-19T16:48:53.065Z,7.78
2023-05-19T16:50:54.775Z,3.80
2023-05-19T16:52:56.391Z,2.67
2023-05-19T16:54:58.133Z,2.83
2023-05-19T16:56:59.952Z,2.72
2023-05-19T16:59:01.668Z,2.58
2023-05-19T17:01:04.077Z,2.63
2023-05-19T17:03:06.135Z,2.15
2023-05-19T17:05:08.317Z,2.80
2023-05-19T17:07:15.731Z,2.22
2023-05-19T17:09:17.539Z,2.08
2023-05-19T17:11:19.164Z,2.55
2023-05-19T17:13:20.988Z,2.47
2023-05-19T17:15:22.581Z,2.17
2023-05-19T17:17:24.240Z,3.10
2023-05-19T17:19:26.114Z,2.15
2023-05-19T17:21:27.854Z,2.00
2023-05-19T17:23:29.667Z,2.42
2023-05-19T17:25:32.933Z,2.70
2023-05-19T17:27:34.545Z,2.22
2023-05-19T17:29:36.859Z,2.25
2023-05-19T17:31:38.777Z,2.58
2023-05-19T17:33:40.835Z,2.15
2023-05-19T17:35:42.462Z,2.42
2023-05-19T17:37:44.073Z,2.28
2023-05-19T17:39:45.778Z,2.20
2023-05-19T17:41:47.360Z,2.47
2023-05-19T17:43:48.969Z,2.47
2023-05-19T17:45:50.772Z,2.53
2023-05-19T17:47:52.392Z,2.40
2023-05-19T17:49:54.091Z,2.30
2023-05-19T17:51:56.069Z,2.15
2023-05-19T17:53:58.388Z,2.20
2023-05-19T17:56:01.613Z,2.60
2023-05-19T17:58:03.434Z,2.38
2023-05-19T18:00:07.575Z,2.67
2023-05-19T18:02:10.002Z,2.70
2023-05-19T18:04:13.808Z,2.53
2023-05-19T18:06:17.801Z,2.20
2023-05-19T18:08:19.878Z,2.60
2023-05-19T18:10:22.280Z,2.60
2023-05-19T18:12:23.992Z,2.58
2023-05-19T18:14:25.587Z,2.58
2023-05-19T18:16:27.497Z,2.63
2023-05-19T18:18:29.131Z,2.50
2023-05-19T18:20:34.057Z,2.92
2023-05-19T18:22:35.942Z,2.80
2023-05-19T18:24:37.609Z,2.70
2023-05-19T18:26:41.857Z,2.72
2023-05-19T18:28:44.028Z,2.60
2023-05-19T18:30:45.805Z,2.60
2023-05-19T18:32:47.434Z,2.90
2023-05-19T18:34:49.154Z,2.72
2023-05-19T18:36:50.864Z,2.55
2023-05-19T18:38:53.210Z,2.83
2023-05-19T18:40:56.636Z,2.50
2023-05-19T18:42:58.281Z,2.90
2023-05-19T18:44:59.931Z,2.80
2023-05-19T18:47:01.832Z,2.90
2023-05-19T18:49:03.965Z,2.10
2023-05-19T18:51:07.254Z,2.40
2023-05-19T18:53:08.870Z,2.72
2023-05-19T18:55:10.693Z,2.83
2023-05-19T18:57:12.733Z,2.45
2023-05-19T18:59:14.495Z,3.00
2023-05-19T19:01:16.515Z,2.78
2023-05-19T19:03:18.202Z,2.63
2023-05-19T19:05:20.839Z,2.85
2023-05-19T19:07:24.384Z,2.70
2023-05-19T19:09:25.952Z,3.05
2023-05-19T19:11:27.612Z,2.97
2023-05-19T19:13:29.278Z,2.42
2023-05-19T19:15:31.629Z,2.40
2023-05-19T19:17:34.102Z,2.63
2023-05-19T19:19:35.912Z,2.90
2023-05-19T19:21:37.689Z,2.45
2023-05-19T19:23:39.476Z,2.30
2023-05-19T19:25:41.104Z,2.75
2023-05-19T19:27:42.780Z,2.72
2023-05-19T19:29:44.431Z,2.60
2023-05-19T19:31:46.262Z,2.35
2023-05-19T19:33:47.946Z,2.60
2023-05-19T19:35:49.691Z,2.35
2023-05-19T19:37:51.819Z,2.50
2023-05-19T19:39:53.487Z,2.25
2023-05-19T19:41:55.139Z,2.58
2023-05-19T19:43:56.794Z,2.55
2023-05-19T19:46:02.478Z,2.33
2023-05-19T19:48:04.454Z,2.58
2023-05-19T19:50:07.429Z,2.63
2023-05-19T19:52:09.151Z,2.38
2023-05-19T19:54:10.877Z,2.47
2023-05-19T19:56:12.489Z,2.35
2023-05-19T19:58:14.547Z,2.35
2023-05-19T20:00:16.692Z,2.20
2023-05-19T20:02:18.419Z,2.53
2023-05-19T20:04:20.169Z,2.20
2023-05-19T20:06:22.181Z,2.67
2023-05-19T20:08:24.942Z,2.63
2023-05-19T20:10:26.745Z,2.60
2023-05-19T20:12:30.048Z,2.40
2023-05-19T20:14:31.898Z,2.97
2023-05-19T20:16:33.638Z,2.75
2023-05-19T20:18:35.801Z,2.90
2023-05-19T20:20:38.426Z,2.50
2023-05-19T20:22:40.189Z,2.70
2023-05-19T20:24:41.838Z,3.15
2023-05-19T20:26:43.437Z,3.53
2023-05-19T20:28:45.179Z,2.60
2023-05-19T20:30:47.057Z,2.72
2023-05-19T20:32:48.832Z,2.75
2023-05-19T20:34:50.746Z,2.92
2023-05-19T20:36:52.456Z,3.13
2023-05-19T20:38:54.076Z,2.45
2023-05-19T20:40:55.839Z,2.30
2023-05-19T20:42:57.488Z,2.40
2023-05-19T20:44:59.705Z,3.03
2023-05-19T20:47:01.349Z,3.10
2023-05-19T20:49:03.236Z,2.65
2023-05-19T20:51:05.125Z,2.85
2023-05-19T20:53:07.414Z,3.10
2023-05-19T20:55:09.578Z,3.38
2023-05-19T20:57:12.493Z,2.97
2023-05-19T20:59:14.127Z,2.90
2023-05-19T21:01:15.839Z,3.13
2023-05-19T21:03:17.536Z,3.08
2023-05-19T21:05:19.433Z,3.10
2023-05-19T21:07:21.541Z,3.35
2023-05-19T21:09:23.194Z,3.17
2023-05-19T21:11:25.217Z,3.22
2023-05-19T21:13:26.912Z,3.55
2023-05-19T21:15:28.524Z,2.95
2023-05-19T21:17:30.349Z,3.60
2023-05-19T21:19:32.065Z,3.00
2023-05-19T21:21:33.978Z,3.53
2023-05-19T21:23:35.832Z,2.90
2023-05-19T21:25:39.555Z,3.50
2023-05-19T21:27:41.284Z,3.00
2023-05-19T21:29:42.880Z,3.30
2023-05-19T21:31:44.473Z,3.33
2023-05-19T21:33:46.223Z,3.03
2023-05-19T21:35:47.806Z,2.97
2023-05-19T21:37:49.637Z,4.03
2023-05-19T21:39:51.562Z,3.42
2023-05-19T21:41:53.168Z,3.38
2023-05-19T21:43:54.894Z,3.47
2023-05-19T21:45:56.461Z,3.22
2023-05-19T21:47:58.061Z,3.40
2023-05-19T21:49:59.762Z,3.25
2023-05-19T21:52:01.382Z,3.92
2023-05-19T21:54:03.040Z,3.33
2023-05-19T21:56:04.967Z,3.75
2023-05-19T21:58:06.616Z,3.53
2023-05-19T22:00:12.781Z,3.95
2023-05-19T22:02:14.505Z,3.63
2023-05-19T22:04:18.519Z,3.70
2023-05-19T22:06:20.430Z,3.67
2023-05-19T22:08:22.559Z,3.53
2023-05-19T22:10:24.320Z,3.40
2023-05-19T22:12:25.949Z,3.78
2023-05-19T22:14:27.727Z,3.28
2023-05-19T22:16:30.778Z,3.42
2023-05-19T22:18:32.385Z,4.13
2023-05-19T22:20:34.606Z,3.40
2023-05-19T22:22:36.614Z,3.25
2023-05-19T22:24:38.537Z,3.50
2023-05-19T22:26:42.685Z,3.78
2023-05-19T22:28:44.284Z,4.10
2023-05-19T22:30:45.922Z,3.40
2023-05-19T22:32:47.522Z,3.80
2023-05-19T22:34:49.351Z,3.42
2023-05-19T22:36:51.072Z,3.58
2023-05-19T22:38:52.754Z,3.15
2023-05-19T22:40:54.397Z,3.33
2023-05-19T22:42:56.100Z,3.83
2023-05-19T22:44:58.097Z,3.50
2023-05-19T22:46:59.909Z,3.70
2023-05-19T22:49:01.490Z,3.63
2023-05-19T22:51:03.221Z,3.63
2023-05-19T22:53:04.806Z,3.55
2023-05-19T22:55:07.030Z,3.47
2023-05-19T22:57:08.845Z,3.20
2023-05-19T22:59:11.462Z,3.45
2023-05-19T23:01:13.202Z,4.07
2023-05-19T23:03:15.045Z,4.00
2023-05-19T23:05:16.760Z,3.55
2023-05-19T23:07:18.378Z,3.33
2023-05-19T23:09:20.075Z,3.53
2023-05-19T23:11:21.948Z,3.53
2023-05-19T23:13:23.583Z,3.90
2023-05-19T23:15:25.327Z,4.32
2023-05-19T23:17:27.110Z,4.13
2023-05-19T23:19:31.758Z,3.40
2023-05-19T23:21:33.460Z,4.05
2023-05-19T23:23:36.725Z,3.35
2023-05-19T23:25:38.385Z,3.55
2023-05-19T23:27:41.417Z,3.47
2023-05-19T23:29:47.170Z,3.47
2023-05-19T23:31:48.917Z,3.50
2023-05-19T23:33:53.252Z,3.78
2023-05-19T23:35:54.800Z,3.78
2023-05-19T23:37:56.617Z,4.07
2023-05-19T23:39:58.213Z,3.47
2023-05-19T23:41:59.836Z,3.28
2023-05-19T23:44:01.633Z,3.88
2023-05-19T23:46:03.437Z,3.83
2023-05-19T23:48:05.481Z,3.45
2023-05-19T23:50:07.440Z,3.15
2023-05-19T23:52:09.247Z,3.38
2023-05-19T23:54:11.174Z,3.40
2023-05-19T23:56:13.124Z,3.63
2023-05-19T23:58:15.886Z,3.45
